createdAt,value
2019-03-23T00:02:10.891Z,75.61
2019-03-23T00:04:40.643Z,75.85
2019-03-23T00:07:10.442Z,75.82
2019-03-23T00:09:40.183Z,75.56
2019-03-23T00:12:10.189Z,75.42
2019-03-23T00:14:39.954Z,75.94
2019-03-23T00:17:09.766Z,75.53
2019-03-23T00:19:39.655Z,75.15
2019-03-23T00:22:09.419Z,75.93
2019-03-23T00:24:39.194Z,76.25
2019-03-23T00:27:08.941Z,76.30
2019-03-23T00:29:38.731Z,75.78
2019-03-23T00:32:08.567Z,75.75
2019-03-23T00:34:38.435Z,76.31
2019-03-23T00:37:08.257Z,76.41
2019-03-23T00:39:38.087Z,76.23
2019-03-23T00:42:07.853Z,76.58
2019-03-23T00:44:37.666Z,76.59
2019-03-23T00:47:07.428Z,76.50
2019-03-23T00:49:37.197Z,76.57
2019-03-23T00:52:06.957Z,76.39
2019-03-23T00:54:36.696Z,76.19
2019-03-23T00:57:06.505Z,75.99
2019-03-23T00:59:36.282Z,76.10
2019-03-23T01:02:06.062Z,75.70
2019-03-23T01:04:35.845Z,75.75
2019-03-23T01:07:05.583Z,76.36
2019-03-23T01:09:35.395Z,76.15
2019-03-23T01:12:05.125Z,75.87
2019-03-23T01:14:34.894Z,76.53
2019-03-23T01:17:04.759Z,76.42
2019-03-23T01:19:34.557Z,75.83
2019-03-23T01:22:04.335Z,76.34
2019-03-23T01:24:34.136Z,76.71
2019-03-23T01:27:03.903Z,75.89
2019-03-23T01:29:34.812Z,75.86
2019-03-23T01:32:04.587Z,76.02
2019-03-23T01:34:34.376Z,75.87
2019-03-23T01:37:04.141Z,77.21
2019-03-23T01:39:33.916Z,77.46
2019-03-23T01:42:03.691Z,77.37
2019-03-23T01:44:33.427Z,77.81
2019-03-23T01:47:03.578Z,77.20
2019-03-23T01:49:33.311Z,76.08
2019-03-23T01:52:03.131Z,76.08
2019-03-23T01:54:32.898Z,77.24
2019-03-23T01:57:02.678Z,75.89
2019-03-23T01:59:32.470Z,76.15
2019-03-23T02:02:02.202Z,76.39
2019-03-23T02:04:31.989Z,77.38
2019-03-23T02:07:01.735Z,77.52
2019-03-23T02:09:31.482Z,77.93
2019-03-23T02:12:01.271Z,77.85
2019-03-23T02:14:31.041Z,76.53
2019-03-23T02:17:00.841Z,76.00
2019-03-23T02:19:30.608Z,76.86
2019-03-23T02:22:00.381Z,77.58
2019-03-23T02:24:30.155Z,77.69
2019-03-23T02:26:59.908Z,77.01
2019-03-23T02:29:29.698Z,77.07
2019-03-23T02:31:59.443Z,77.52
2019-03-23T02:34:29.208Z,78.36
2019-03-23T02:36:58.988Z,78.04
2019-03-23T02:39:28.781Z,78.55
2019-03-23T02:41:58.546Z,78.16
2019-03-23T02:44:28.329Z,77.98
2019-03-23T02:46:58.103Z,78.05
2019-03-23T02:49:27.836Z,78.04
2019-03-23T02:51:57.623Z,78.17
2019-03-23T02:54:27.368Z,78.42
2019-03-23T02:56:57.196Z,77.84
2019-03-23T02:59:26.975Z,77.71
2019-03-23T03:01:56.778Z,77.40
2019-03-23T03:04:26.566Z,77.36
2019-03-23T03:06:56.328Z,77.26
2019-03-23T03:09:26.107Z,76.73
2019-03-23T03:11:56.018Z,77.24
2019-03-23T03:14:25.783Z,77.87
2019-03-23T03:16:55.568Z,78.17
2019-03-23T03:19:25.343Z,78.65
2019-03-23T03:21:55.099Z,78.14
2019-03-23T03:24:24.869Z,77.42
2019-03-23T03:26:54.601Z,77.88
2019-03-23T03:29:24.385Z,78.98
2019-03-23T03:31:54.133Z,78.60
2019-03-23T03:34:23.995Z,77.98
2019-03-23T03:36:53.751Z,77.39
2019-03-23T03:39:23.562Z,77.94
2019-03-23T03:41:53.316Z,78.34
2019-03-23T03:47:48.617Z,78.24
2019-03-23T03:50:18.357Z,78.65
2019-03-23T03:52:48.125Z,79.10
2019-03-23T03:55:17.903Z,79.33
2019-03-23T03:57:47.641Z,77.90
2019-03-23T04:00:17.435Z,77.64
2019-03-23T04:02:47.172Z,78.14
2019-03-23T04:05:16.990Z,79.35
2019-03-23T04:07:47.242Z,80.00
2019-03-23T04:10:17.048Z,79.73
2019-03-23T04:12:46.829Z,79.54
2019-03-23T04:15:16.706Z,77.48
2019-03-23T04:17:46.478Z,79.35
2019-03-23T04:20:17.623Z,79.58
2019-03-23T04:22:47.404Z,78.57
2019-03-23T04:25:17.156Z,78.04
2019-03-23T04:27:46.962Z,77.97
2019-03-23T04:30:16.748Z,78.42
2019-03-23T04:32:46.729Z,78.29
2019-03-23T04:35:16.504Z,77.34
2019-03-23T04:37:46.234Z,78.15
2019-03-23T04:40:16.124Z,76.38
2019-03-23T04:42:45.964Z,76.76
2019-03-23T04:45:15.733Z,76.54
2019-03-23T04:47:45.506Z,76.43
2019-03-23T04:50:15.235Z,76.36
2019-03-23T04:52:45.077Z,77.01
2019-03-23T04:55:15.035Z,78.04
2019-03-23T04:57:44.814Z,78.73
2019-03-23T05:00:20.487Z,76.91
2019-03-23T05:02:50.376Z,78.33
2019-03-23T05:05:20.158Z,78.23
2019-03-23T05:07:49.923Z,78.01
2019-03-23T05:10:19.798Z,78.81
2019-03-23T05:12:49.642Z,79.61
2019-03-23T05:15:19.441Z,79.77
2019-03-23T05:17:49.182Z,79.66
2019-03-23T05:20:29.989Z,79.64
2019-03-23T05:22:59.738Z,79.40
2019-03-23T05:25:30.038Z,78.96
2019-03-23T05:27:59.876Z,78.78
2019-03-23T05:30:29.679Z,79.36
2019-03-23T05:32:59.419Z,78.85
2019-03-23T05:35:29.308Z,80.25
2019-03-23T05:37:59.039Z,79.15
2019-03-23T05:40:28.820Z,78.67
2019-03-23T05:42:58.689Z,78.85
2019-03-23T05:48:39.979Z,78.85
2019-03-23T05:51:09.759Z,78.82
2019-03-23T05:53:39.577Z,78.69
2019-03-23T05:56:09.357Z,79.39
2019-03-23T05:58:39.142Z,78.67
2019-03-23T06:01:09.011Z,78.88
2019-03-23T06:03:38.771Z,78.71
2019-03-23T06:06:08.686Z,78.76
2019-03-23T06:08:38.435Z,78.23
2019-03-23T06:11:08.295Z,77.81
2019-03-23T06:13:38.034Z,77.90
2019-03-23T06:16:07.830Z,77.56
2019-03-23T06:18:37.567Z,77.17
2019-03-23T06:21:07.332Z,76.89
2019-03-23T06:23:37.091Z,76.71
2019-03-23T06:26:06.888Z,76.43
2019-03-23T06:28:36.666Z,76.14
2019-03-23T06:31:06.535Z,75.21
2019-03-23T06:33:36.314Z,74.82
2019-03-23T06:36:06.060Z,74.97
2019-03-23T06:38:35.857Z,74.69
2019-03-23T06:41:05.602Z,74.29
2019-03-23T06:43:35.364Z,73.91
2019-03-23T06:46:05.158Z,74.06
2019-03-23T06:48:34.945Z,73.25
2019-03-23T06:51:04.722Z,73.29
2019-03-23T06:53:34.814Z,72.94
2019-03-23T06:56:04.596Z,72.06
2019-03-23T06:58:34.378Z,71.69
2019-03-23T07:01:04.147Z,71.64
2019-03-23T07:03:33.894Z,71.42
2019-03-23T07:06:03.698Z,71.35
2019-03-23T07:08:33.449Z,70.78
2019-03-23T07:11:03.238Z,70.59
2019-03-23T07:13:32.976Z,70.18
2019-03-23T07:16:03.110Z,70.03
2019-03-23T07:18:32.842Z,69.34
2019-03-23T07:21:02.629Z,69.12
2019-03-23T07:23:32.422Z,69.56
2019-03-23T07:26:02.235Z,69.28
2019-03-23T07:28:32.014Z,69.31
2019-03-23T07:31:01.795Z,69.04
2019-03-23T07:33:31.574Z,68.66
2019-03-23T07:36:01.319Z,68.64
2019-03-23T07:38:31.138Z,68.37
2019-03-23T07:41:00.875Z,68.42
2019-03-23T07:43:30.672Z,68.29
2019-03-23T07:46:00.458Z,68.37
2019-03-23T07:48:30.353Z,68.46
2019-03-23T07:51:00.124Z,67.92
2019-03-23T07:53:29.891Z,67.39
2019-03-23T07:55:59.678Z,67.29
2019-03-23T07:58:29.442Z,67.45
2019-03-23T08:00:59.249Z,67.02
2019-03-23T08:03:28.983Z,67.25
2019-03-23T08:05:58.790Z,66.77
2019-03-23T08:08:28.540Z,66.56
2019-03-23T08:10:58.311Z,66.55
2019-03-23T08:13:28.199Z,66.54
2019-03-23T08:15:58.072Z,66.25
2019-03-23T08:18:27.839Z,65.76
2019-03-23T08:20:57.658Z,66.00
2019-03-23T08:23:27.440Z,65.55
2019-03-23T08:25:57.222Z,65.28
2019-03-23T08:28:27.613Z,65.35
2019-03-23T08:31:00.135Z,64.84
2019-03-23T08:33:29.932Z,65.18
2019-03-23T08:35:59.732Z,64.73
2019-03-23T08:38:37.088Z,64.81
2019-03-23T08:41:08.566Z,64.67
2019-03-23T08:43:38.362Z,64.38
2019-03-23T08:46:08.201Z,64.49
2019-03-23T08:48:40.581Z,63.98
2019-03-23T08:51:11.279Z,64.00
2019-03-23T08:53:41.046Z,63.61
2019-03-23T08:56:10.878Z,63.54
2019-03-23T08:58:39.574Z,62.83
2019-03-23T09:01:09.865Z,63.10
2019-03-23T09:03:39.642Z,63.19
2019-03-23T09:06:09.392Z,62.28
2019-03-23T09:08:39.203Z,61.89
2019-03-23T09:11:08.955Z,61.77
2019-03-23T09:13:40.727Z,61.82
2019-03-23T09:16:10.257Z,61.74
2019-03-23T09:18:40.051Z,61.50
2019-03-23T09:21:09.846Z,60.74
2019-03-23T09:23:39.632Z,60.77
2019-03-23T09:26:09.421Z,60.68
2019-03-23T09:28:39.185Z,60.75
2019-03-23T09:31:08.997Z,60.32
2019-03-23T09:33:38.739Z,60.55
2019-03-23T09:36:08.554Z,60.11
2019-03-23T09:38:38.303Z,59.26
2019-03-23T09:41:08.107Z,59.93
2019-03-23T09:43:37.860Z,59.19
2019-03-23T09:46:07.660Z,59.44
2019-03-23T09:48:37.459Z,59.05
2019-03-23T09:51:07.270Z,58.93
2019-03-23T09:53:37.048Z,58.94
2019-03-23T09:56:06.860Z,59.12
2019-03-23T09:58:36.637Z,58.77
2019-03-23T10:01:06.390Z,58.91
2019-03-23T10:03:36.196Z,58.28
2019-03-23T10:06:06.115Z,58.25
2019-03-23T10:08:35.945Z,58.25
2019-03-23T10:11:05.687Z,57.98
2019-03-23T10:13:35.477Z,57.70
2019-03-23T10:16:06.275Z,56.97
2019-03-23T10:18:36.072Z,58.37
2019-03-23T10:21:05.863Z,57.96
2019-03-23T10:23:35.673Z,57.60
2019-03-23T10:26:05.456Z,57.20
2019-03-23T10:28:35.259Z,57.76
2019-03-23T10:31:05.039Z,56.68
2019-03-23T10:33:34.789Z,57.08
2019-03-23T10:36:04.617Z,57.01
2019-03-23T10:38:34.371Z,57.00
2019-03-23T10:41:04.212Z,56.41
2019-03-23T10:43:34.000Z,56.47
2019-03-23T10:46:03.817Z,56.71
2019-03-23T10:48:33.605Z,56.87
2019-03-23T10:51:03.382Z,56.22
2019-03-23T10:53:33.162Z,55.57
2019-03-23T10:56:02.916Z,55.39
2019-03-23T10:58:32.938Z,55.72
2019-03-23T11:01:02.679Z,55.38
2019-03-23T11:03:32.491Z,55.48
2019-03-23T11:06:03.813Z,55.67
2019-03-23T11:08:33.617Z,54.48
2019-03-23T11:11:03.376Z,55.27
2019-03-23T11:13:33.150Z,54.59
2019-03-23T11:16:02.925Z,55.45
2019-03-23T11:18:32.734Z,53.30
2019-03-23T11:21:02.520Z,53.26
2019-03-23T11:23:32.303Z,53.57
2019-03-23T11:26:02.162Z,54.08
2019-03-23T11:28:31.918Z,53.81
2019-03-23T11:31:01.709Z,53.41
2019-03-23T11:33:31.446Z,53.11
2019-03-23T11:36:01.229Z,53.75
2019-03-23T11:38:31.019Z,54.40
2019-03-23T11:41:00.751Z,53.89
2019-03-23T11:43:30.584Z,52.83
2019-03-23T11:46:00.355Z,52.64
2019-03-23T11:48:30.134Z,53.05
2019-03-23T11:50:59.906Z,52.97
2019-03-23T11:53:29.656Z,52.41
2019-03-23T11:55:59.453Z,52.60
2019-03-23T11:58:29.205Z,52.55
2019-03-23T12:00:58.978Z,52.26
2019-03-23T12:03:28.751Z,51.46
2019-03-23T12:05:58.530Z,51.77
2019-03-23T12:08:28.311Z,51.75
2019-03-23T12:11:02.875Z,51.49
2019-03-23T12:13:29.564Z,51.55
2019-03-23T12:15:59.306Z,50.50
2019-03-23T12:18:29.106Z,51.38
2019-03-23T12:20:58.848Z,51.02
2019-03-23T12:23:28.620Z,51.67
2019-03-23T12:25:58.401Z,50.56
2019-03-23T12:28:28.180Z,51.47
2019-03-23T12:30:57.958Z,49.42
2019-03-23T12:33:27.697Z,49.46
2019-03-23T12:35:57.487Z,50.20
2019-03-23T12:38:27.344Z,49.66
2019-03-23T12:40:57.155Z,48.89
2019-03-23T12:43:26.892Z,50.32
2019-03-23T12:45:56.695Z,50.76
2019-03-23T12:48:26.550Z,50.02
2019-03-23T12:50:56.327Z,50.11
2019-03-23T12:53:26.100Z,49.57
2019-03-23T12:55:55.854Z,50.13
2019-03-23T12:58:25.672Z,49.55
2019-03-23T13:00:55.427Z,49.80
2019-03-23T13:03:25.229Z,49.12
2019-03-23T13:05:54.973Z,50.26
2019-03-23T13:08:24.852Z,50.04
2019-03-23T13:10:54.633Z,49.89
2019-03-23T13:13:24.446Z,50.00
2019-03-23T13:15:54.224Z,49.96
2019-03-23T13:18:27.283Z,48.73
2019-03-23T13:20:55.602Z,45.41
2019-03-23T13:23:25.410Z,46.99
2019-03-23T13:25:55.185Z,46.21
2019-03-23T13:28:24.971Z,45.43
2019-03-23T13:30:54.737Z,46.75
2019-03-23T13:33:24.491Z,46.81
2019-03-23T13:35:54.293Z,46.59
2019-03-23T13:38:24.057Z,46.87
2019-03-23T13:40:53.844Z,45.77
2019-03-23T13:43:23.661Z,46.46
2019-03-23T13:45:53.409Z,46.51
2019-03-23T13:48:23.202Z,46.68
2019-03-23T13:50:52.943Z,46.70
2019-03-23T13:53:22.735Z,47.08
2019-03-23T13:55:52.505Z,46.71
2019-03-23T13:58:22.327Z,46.77
2019-03-23T14:00:52.109Z,47.19
2019-03-23T14:03:21.881Z,47.13
2019-03-23T14:05:51.660Z,46.60
2019-03-23T14:08:21.412Z,46.04
2019-03-23T14:10:51.225Z,45.52
2019-03-23T14:13:20.966Z,46.59
2019-03-23T14:15:50.793Z,47.06
2019-03-23T14:18:20.544Z,47.11
2019-03-23T14:20:50.308Z,47.25
2019-03-23T14:23:20.094Z,46.25
2019-03-23T14:25:49.909Z,44.83
2019-03-23T14:28:19.679Z,44.63
2019-03-23T14:30:49.472Z,44.63
2019-03-23T14:33:19.248Z,45.74
2019-03-23T14:35:49.000Z,44.58
2019-03-23T14:38:18.817Z,44.75
2019-03-23T14:40:48.576Z,44.43
2019-03-23T14:43:18.362Z,44.78
2019-03-23T14:45:48.136Z,44.92
2019-03-23T14:48:17.940Z,43.75
2019-03-23T14:50:47.724Z,44.13
2019-03-23T14:53:17.495Z,44.19
2019-03-23T14:55:47.341Z,44.64
2019-03-23T14:58:17.094Z,44.54
2019-03-23T15:00:46.895Z,43.58
2019-03-23T15:03:16.661Z,43.10
2019-03-23T15:05:46.470Z,43.74
2019-03-23T15:08:16.241Z,43.57
2019-03-23T15:10:46.159Z,43.79
2019-03-23T15:13:15.926Z,42.62
2019-03-23T15:15:45.711Z,42.72
2019-03-23T15:18:15.474Z,42.49
2019-03-23T15:20:45.217Z,43.41
2019-03-23T15:23:15.035Z,43.40
2019-03-23T15:25:44.784Z,42.80
2019-03-23T15:28:14.561Z,43.49
2019-03-23T15:30:44.355Z,43.91
2019-03-23T15:33:14.270Z,43.42
2019-03-23T15:35:44.051Z,43.69
2019-03-23T15:38:13.834Z,43.50
2019-03-23T15:40:43.610Z,43.33
2019-03-23T15:43:13.347Z,43.30
2019-03-23T15:45:43.155Z,43.52
2019-03-23T15:48:12.890Z,43.87
2019-03-23T15:50:42.666Z,43.64
2019-03-23T15:53:12.454Z,44.16
2019-03-23T15:55:42.349Z,44.60
2019-03-23T15:58:12.137Z,44.09
2019-03-23T16:00:41.916Z,43.68
2019-03-23T16:03:11.694Z,43.62
2019-03-23T16:05:41.440Z,43.79
2019-03-23T16:08:11.255Z,43.95
2019-03-23T16:10:41.113Z,44.06
2019-03-23T16:13:10.935Z,44.28
2019-03-23T16:15:40.700Z,44.50
2019-03-23T16:18:10.485Z,44.41
2019-03-23T16:20:40.257Z,44.51
2019-03-23T16:23:10.088Z,44.40
2019-03-23T16:25:42.396Z,43.31
2019-03-23T16:28:12.190Z,43.68
2019-03-23T16:30:41.949Z,43.28
2019-03-23T16:33:13.314Z,43.88
2019-03-23T16:35:43.083Z,44.41
2019-03-23T16:38:14.586Z,45.54
2019-03-23T16:40:47.331Z,45.75
2019-03-23T16:43:17.242Z,48.84
2019-03-23T16:45:47.010Z,51.76
2019-03-23T16:48:18.376Z,53.99
2019-03-23T16:50:48.166Z,55.24
2019-03-23T16:53:17.981Z,56.36
2019-03-23T16:55:47.762Z,57.10
2019-03-23T16:58:17.540Z,57.53
2019-03-23T17:00:47.317Z,57.79
2019-03-23T17:03:17.119Z,57.71
2019-03-23T17:05:46.902Z,57.87
2019-03-23T17:08:17.164Z,58.18
2019-03-23T17:10:46.934Z,58.06
2019-03-23T17:13:16.747Z,58.16
2019-03-23T17:15:46.516Z,58.62
2019-03-23T17:18:16.318Z,59.07
2019-03-23T17:20:46.102Z,59.71
2019-03-23T17:23:15.895Z,58.96
2019-03-23T17:25:45.672Z,55.61
2019-03-23T17:28:15.403Z,54.17
2019-03-23T17:30:45.217Z,54.12
2019-03-23T17:33:14.984Z,54.62
2019-03-23T17:35:44.769Z,55.14
2019-03-23T17:38:15.230Z,55.21
2019-03-23T17:40:45.155Z,56.07
2019-03-23T17:43:15.353Z,56.94
2019-03-23T17:45:45.140Z,57.88
2019-03-23T17:48:14.933Z,58.81
2019-03-23T17:50:45.014Z,59.99
2019-03-23T17:53:15.788Z,60.66
2019-03-23T17:55:47.136Z,61.59
2019-03-23T17:58:16.928Z,62.08
2019-03-23T18:00:46.699Z,62.80
2019-03-23T18:03:16.487Z,62.96
2019-03-23T18:05:47.190Z,63.26
2019-03-23T18:08:17.032Z,63.13
2019-03-23T18:10:46.790Z,63.64
2019-03-23T18:13:17.301Z,64.05
2019-03-23T18:15:49.742Z,63.95
2019-03-23T18:18:19.932Z,63.54
2019-03-23T18:20:49.683Z,63.67
2019-03-23T18:23:19.479Z,63.74
2019-03-23T18:25:49.260Z,63.94
2019-03-23T18:28:19.066Z,64.32
2019-03-23T18:30:48.848Z,64.25
2019-03-23T18:33:18.646Z,64.27
2019-03-23T18:35:48.434Z,64.07
2019-03-23T18:38:18.208Z,64.10
2019-03-23T18:40:48.018Z,64.08
2019-03-23T18:43:26.958Z,63.87
2019-03-23T18:45:49.279Z,63.69
2019-03-23T18:48:19.050Z,63.34
2019-03-23T18:50:48.836Z,63.64
2019-03-23T18:53:18.620Z,63.53
2019-03-23T18:55:48.406Z,63.64
2019-03-23T18:58:19.209Z,63.55
2019-03-23T19:00:48.956Z,63.74
2019-03-23T19:03:18.775Z,63.61
2019-03-23T19:05:48.520Z,63.67
2019-03-23T19:08:18.310Z,63.86
2019-03-23T19:10:48.056Z,64.12
2019-03-23T19:13:17.842Z,64.08
2019-03-23T19:15:47.631Z,64.25
2019-03-23T20:24:51.718Z,66.95
2019-03-23T21:12:02.202Z,67.89
2019-03-23T21:14:32.016Z,67.53
2019-03-23T21:17:01.879Z,67.59
2019-03-23T21:19:31.656Z,67.51
2019-03-23T21:22:01.495Z,67.39
2019-03-23T21:24:31.308Z,67.18
2019-03-23T21:27:01.191Z,66.62
2019-03-23T21:29:30.962Z,66.69
2019-03-23T21:35:18.960Z,66.83
2019-03-23T21:37:48.734Z,66.95
2019-03-23T21:40:18.547Z,66.82
2019-03-23T21:42:48.335Z,66.96
2019-03-23T21:45:18.367Z,66.67
2019-03-23T21:47:48.148Z,66.56
2019-03-23T21:50:17.973Z,66.63
2019-03-23T21:52:47.760Z,66.62
2019-03-23T21:55:17.509Z,66.93
2019-03-23T21:57:48.765Z,66.80
2019-03-23T22:00:30.754Z,66.90
2019-03-23T22:03:00.758Z,67.00
2019-03-23T22:05:30.495Z,66.98
2019-03-23T22:08:00.272Z,66.99
2019-03-23T22:10:30.102Z,67.00
2019-03-23T22:12:59.921Z,66.91
2019-03-23T22:15:31.407Z,66.98
2019-03-23T22:18:01.233Z,67.32
2019-03-23T22:20:32.439Z,67.14
2019-03-23T22:23:02.246Z,67.51
2019-03-23T22:25:32.005Z,67.45
2019-03-23T22:28:01.828Z,67.50
2019-03-23T22:30:31.607Z,67.51
2019-03-23T22:33:01.469Z,67.68
2019-03-23T22:35:31.263Z,67.83
2019-03-23T22:38:00.998Z,68.06
2019-03-23T22:40:30.810Z,68.16
2019-03-23T22:43:00.563Z,68.06
2019-03-23T22:45:31.381Z,68.07
2019-03-23T22:48:01.159Z,67.99
2019-03-23T22:50:30.969Z,68.15
2019-03-23T22:53:17.837Z,68.40
2019-03-23T22:55:48.771Z,68.59
2019-03-23T22:58:18.501Z,68.85
2019-03-23T23:00:48.296Z,69.10
2019-03-23T23:03:18.089Z,69.00
2019-03-23T23:05:47.871Z,68.87
2019-03-23T23:08:17.659Z,69.13
2019-03-23T23:10:47.432Z,69.08
2019-03-23T23:13:17.195Z,69.13
2019-03-23T23:15:46.942Z,69.28
2019-03-23T23:18:16.764Z,69.29
2019-03-23T23:20:46.542Z,69.55
2019-03-23T23:23:16.424Z,69.95
2019-03-23T23:25:46.221Z,69.81
2019-03-23T23:28:15.996Z,69.83
2019-03-23T23:30:45.840Z,69.99
2019-03-23T23:33:15.588Z,69.98
2019-03-23T23:35:45.398Z,69.96
2019-03-23T23:38:15.216Z,69.83
2019-03-23T23:40:45.011Z,70.09
2019-03-23T23:43:14.793Z,70.04
2019-03-23T23:45:44.665Z,70.29
2019-03-23T23:48:14.437Z,70.63
2019-03-23T23:50:44.206Z,70.59
2019-03-23T23:53:13.985Z,70.49
2019-03-23T23:55:43.727Z,70.33
2019-03-23T23:58:13.535Z,70.07
